sensor_id;sensor_type;location;lat;lon;timestamp;temperature;humidity
17381;DHT22;8808;52.478;13.378;2023-07-02T00:02:09;18.80;99.90
17381;DHT22;8808;52.478;13.378;2023-07-02T00:04:36;18.80;99.90
17381;DHT22;8808;52.478;13.378;2023-07-02T00:07:05;18.80;99.90
17381;DHT22;8808;52.478;13.378;2023-07-02T00:09:32;18.80;99.90
17381;DHT22;8808;52.478;13.378;2023-07-02T00:11:59;18.80;99.90
17381;DHT22;8808;52.478;13.378;2023-07-02T00:14:26;18.80;99.90
17381;DHT22;8808;52.478;13.378;2023-07-02T00:16:53;18.80;99.90
17381;DHT22;8808;52.478;13.378;2023-07-02T00:19:20;18.70;99.90
17381;DHT22;8808;52.478;13.378;2023-07-02T00:21:47;18.70;99.90
17381;DHT22;8808;52.478;13.378;2023-07-02T00:24:15;18.60;99.90
17381;DHT22;8808;52.478;13.378;2023-07-02T00:26:42;18.60;99.90
17381;DHT22;8808;52.478;13.378;2023-07-02T00:29:09;18.60;99.90
17381;DHT22;8808;52.478;13.378;2023-07-02T00:31:37;18.60;99.90
17381;DHT22;8808;52.478;13.378;2023-07-02T00:34:04;18.60;99.90
17381;DHT22;8808;52.478;13.378;2023-07-02T00:36:32;18.50;99.90
17381;DHT22;8808;52.478;13.378;2023-07-02T00:38:59;18.60;99.90
17381;DHT22;8808;52.478;13.378;2023-07-02T00:41:27;18.60;99.90
17381;DHT22;8808;52.478;13.378;2023-07-02T00:43:54;18.60;99.90
17381;DHT22;8808;52.478;13.378;2023-07-02T00:46:22;18.50;99.90
17381;DHT22;8808;52.478;13.378;2023-07-02T00:48:51;18.50;99.90
17381;DHT22;8808;52.478;13.378;2023-07-02T00:51:20;18.50;99.90
17381;DHT22;8808;52.478;13.378;2023-07-02T00:53:49;18.50;99.90
17381;DHT22;8808;52.478;13.378;2023-07-02T00:56:16;18.50;99.90
17381;DHT22;8808;52.478;13.378;2023-07-02T00:58:46;18.50;99.90
17381;DHT22;8808;52.478;13.378;2023-07-02T01:03:53;18.40;99.90
17381;DHT22;8808;52.478;13.378;2023-07-02T01:06:23;18.50;99.90
17381;DHT22;8808;52.478;13.378;2023-07-02T01:08:57;18.40;99.90
17381;DHT22;8808;52.478;13.378;2023-07-02T01:11:27;18.50;99.90
17381;DHT22;8808;52.478;13.378;2023-07-02T01:13:59;18.50;99.90
17381;DHT22;8808;52.478;13.378;2023-07-02T01:16:28;18.50;99.90
17381;DHT22;8808;52.478;13.378;2023-07-02T01:18:57;18.50;99.90
17381;DHT22;8808;52.478;13.378;2023-07-02T01:21:25;18.50;99.90
17381;DHT22;8808;52.478;13.378;2023-07-02T01:23:53;18.50;99.90
17381;DHT22;8808;52.478;13.378;2023-07-02T01:26:20;18.50;99.90
17381;DHT22;8808;52.478;13.378;2023-07-02T01:28:47;18.40;99.90
17381;DHT22;8808;52.478;13.378;2023-07-02T01:31:14;18.40;99.90
17381;DHT22;8808;52.478;13.378;2023-07-02T01:33:41;18.40;99.90
17381;DHT22;8808;52.478;13.378;2023-07-02T01:36:08;18.40;99.90
17381;DHT22;8808;52.478;13.378;2023-07-02T01:38:37;18.40;99.90
17381;DHT22;8808;52.478;13.378;2023-07-02T01:41:04;18.40;99.90
17381;DHT22;8808;52.478;13.378;2023-07-02T01:43:31;18.40;99.90
17381;DHT22;8808;52.478;13.378;2023-07-02T01:45:57;18.40;99.90
17381;DHT22;8808;52.478;13.378;2023-07-02T01:48:25;18.40;99.90
17381;DHT22;8808;52.478;13.378;2023-07-02T01:50:52;18.40;99.90
17381;DHT22;8808;52.478;13.378;2023-07-02T01:53:19;18.30;99.90
17381;DHT22;8808;52.478;13.378;2023-07-02T01:55:47;18.30;99.90
17381;DHT22;8808;52.478;13.378;2023-07-02T01:58:14;18.30;99.90
17381;DHT22;8808;52.478;13.378;2023-07-02T02:00:41;18.30;99.90
17381;DHT22;8808;52.478;13.378;2023-07-02T02:03:08;18.30;99.90
17381;DHT22;8808;52.478;13.378;2023-07-02T02:05:35;18.30;99.90
17381;DHT22;8808;52.478;13.378;2023-07-02T02:08:02;18.40;99.90
17381;DHT22;8808;52.478;13.378;2023-07-02T02:10:29;18.20;99.90
17381;DHT22;8808;52.478;13.378;2023-07-02T02:12:58;18.20;99.90
17381;DHT22;8808;52.478;13.378;2023-07-02T02:15:25;18.20;99.90
17381;DHT22;8808;52.478;13.378;2023-07-02T02:17:51;18.10;99.90
17381;DHT22;8808;52.478;13.378;2023-07-02T02:20:19;18.20;99.90
17381;DHT22;8808;52.478;13.378;2023-07-02T02:22:45;18.10;99.90
17381;DHT22;8808;52.478;13.378;2023-07-02T02:25:12;18.10;99.90
17381;DHT22;8808;52.478;13.378;2023-07-02T02:27:39;18.10;99.90
17381;DHT22;8808;52.478;13.378;2023-07-02T02:30:09;18.00;99.90
17381;DHT22;8808;52.478;13.378;2023-07-02T02:32:36;18.00;99.90
17381;DHT22;8808;52.478;13.378;2023-07-02T02:35:04;18.10;99.90
17381;DHT22;8808;52.478;13.378;2023-07-02T02:37:33;18.10;99.90
17381;DHT22;8808;52.478;13.378;2023-07-02T02:40:00;18.10;99.90
17381;DHT22;8808;52.478;13.378;2023-07-02T02:42:27;18.10;99.90
17381;DHT22;8808;52.478;13.378;2023-07-02T02:44:54;18.00;99.90
17381;DHT22;8808;52.478;13.378;2023-07-02T02:47:22;18.00;99.90
17381;DHT22;8808;52.478;13.378;2023-07-02T02:49:49;17.90;99.90
17381;DHT22;8808;52.478;13.378;2023-07-02T02:52:16;18.00;99.90
17381;DHT22;8808;52.478;13.378;2023-07-02T02:54:45;18.00;99.90
17381;DHT22;8808;52.478;13.378;2023-07-02T02:57:12;18.00;99.90
17381;DHT22;8808;52.478;13.378;2023-07-02T02:59:40;18.00;99.90
17381;DHT22;8808;52.478;13.378;2023-07-02T03:02:07;17.90;99.90
17381;DHT22;8808;52.478;13.378;2023-07-02T03:04:35;18.00;99.90
17381;DHT22;8808;52.478;13.378;2023-07-02T03:07:05;18.00;99.90
17381;DHT22;8808;52.478;13.378;2023-07-02T03:09:32;18.00;99.90
17381;DHT22;8808;52.478;13.378;2023-07-02T03:11:59;17.90;99.90
17381;DHT22;8808;52.478;13.378;2023-07-02T03:14:26;17.90;99.90
17381;DHT22;8808;52.478;13.378;2023-07-02T03:16:53;17.90;99.90
17381;DHT22;8808;52.478;13.378;2023-07-02T03:19:20;17.90;99.90
17381;DHT22;8808;52.478;13.378;2023-07-02T03:21:48;17.90;99.90
17381;DHT22;8808;52.478;13.378;2023-07-02T03:24:15;17.90;99.90
17381;DHT22;8808;52.478;13.378;2023-07-02T03:26:43;18.00;99.90
17381;DHT22;8808;52.478;13.378;2023-07-02T03:29:10;18.00;99.90
17381;DHT22;8808;52.478;13.378;2023-07-02T03:31:37;17.90;99.90
17381;DHT22;8808;52.478;13.378;2023-07-02T03:34:07;17.90;99.90
17381;DHT22;8808;52.478;13.378;2023-07-02T03:36:34;17.90;99.90
17381;DHT22;8808;52.478;13.378;2023-07-02T03:39:03;17.80;99.90
17381;DHT22;8808;52.478;13.378;2023-07-02T03:41:30;17.80;99.90
17381;DHT22;8808;52.478;13.378;2023-07-02T03:43:57;17.90;99.90
17381;DHT22;8808;52.478;13.378;2023-07-02T03:46:24;17.90;99.90
17381;DHT22;8808;52.478;13.378;2023-07-02T03:48:51;17.80;99.90
17381;DHT22;8808;52.478;13.378;2023-07-02T03:51:18;17.80;99.90
17381;DHT22;8808;52.478;13.378;2023-07-02T03:53:45;17.80;99.90
17381;DHT22;8808;52.478;13.378;2023-07-02T03:56:13;17.80;99.90
17381;DHT22;8808;52.478;13.378;2023-07-02T03:58:40;17.80;99.90
17381;DHT22;8808;52.478;13.378;2023-07-02T04:01:07;17.80;99.90
17381;DHT22;8808;52.478;13.378;2023-07-02T04:03:34;17.80;99.90
17381;DHT22;8808;52.478;13.378;2023-07-02T04:06:01;17.90;99.90
17381;DHT22;8808;52.478;13.378;2023-07-02T04:08:31;17.80;99.90
17381;DHT22;8808;52.478;13.378;2023-07-02T04:10:58;17.80;99.90
17381;DHT22;8808;52.478;13.378;2023-07-02T04:13:26;17.80;99.90
17381;DHT22;8808;52.478;13.378;2023-07-02T04:15:53;17.80;99.90
17381;DHT22;8808;52.478;13.378;2023-07-02T04:18:20;17.80;99.90
17381;DHT22;8808;52.478;13.378;2023-07-02T04:20:47;17.80;99.90
17381;DHT22;8808;52.478;13.378;2023-07-02T04:23:14;17.80;99.90
17381;DHT22;8808;52.478;13.378;2023-07-02T04:25:41;17.80;99.90
17381;DHT22;8808;52.478;13.378;2023-07-02T04:28:08;17.80;99.90
17381;DHT22;8808;52.478;13.378;2023-07-02T04:30:37;17.80;99.90
17381;DHT22;8808;52.478;13.378;2023-07-02T04:33:04;17.90;99.90
17381;DHT22;8808;52.478;13.378;2023-07-02T04:35:32;17.90;99.90
17381;DHT22;8808;52.478;13.378;2023-07-02T04:37:59;17.90;99.90
17381;DHT22;8808;52.478;13.378;2023-07-02T04:40:27;18.00;99.90
17381;DHT22;8808;52.478;13.378;2023-07-02T04:42:54;18.00;99.90
17381;DHT22;8808;52.478;13.378;2023-07-02T04:45:24;18.00;99.90
17381;DHT22;8808;52.478;13.378;2023-07-02T04:47:53;18.00;99.90
17381;DHT22;8808;52.478;13.378;2023-07-02T04:50:20;18.10;99.90
17381;DHT22;8808;52.478;13.378;2023-07-02T04:52:47;18.10;99.90
17381;DHT22;8808;52.478;13.378;2023-07-02T04:55:14;18.00;99.90
17381;DHT22;8808;52.478;13.378;2023-07-02T04:57:41;18.00;99.90
17381;DHT22;8808;52.478;13.378;2023-07-02T05:00:11;18.10;99.90
17381;DHT22;8808;52.478;13.378;2023-07-02T05:02:38;18.10;99.90
17381;DHT22;8808;52.478;13.378;2023-07-02T05:05:08;18.10;99.90
17381;DHT22;8808;52.478;13.378;2023-07-02T05:07:35;18.30;99.90
17381;DHT22;8808;52.478;13.378;2023-07-02T05:10:02;18.30;99.90
17381;DHT22;8808;52.478;13.378;2023-07-02T05:12:29;18.40;99.90
17381;DHT22;8808;52.478;13.378;2023-07-02T05:14:56;18.40;99.90
17381;DHT22;8808;52.478;13.378;2023-07-02T05:17:23;18.40;99.90
17381;DHT22;8808;52.478;13.378;2023-07-02T05:19:50;18.60;99.90
17381;DHT22;8808;52.478;13.378;2023-07-02T05:22:18;18.50;99.90
17381;DHT22;8808;52.478;13.378;2023-07-02T05:24:45;18.40;99.90
17381;DHT22;8808;52.478;13.378;2023-07-02T05:27:13;18.50;99.90
17381;DHT22;8808;52.478;13.378;2023-07-02T05:29:40;18.50;99.90
17381;DHT22;8808;52.478;13.378;2023-07-02T05:32:07;18.50;99.90
17381;DHT22;8808;52.478;13.378;2023-07-02T05:34:34;18.50;99.90
17381;DHT22;8808;52.478;13.378;2023-07-02T05:37:01;18.60;99.90
17381;DHT22;8808;52.478;13.378;2023-07-02T05:39:29;18.70;99.90
17381;DHT22;8808;52.478;13.378;2023-07-02T05:41:56;18.70;99.90
17381;DHT22;8808;52.478;13.378;2023-07-02T05:44:23;19.00;99.90
17381;DHT22;8808;52.478;13.378;2023-07-02T05:46:50;19.10;99.90
17381;DHT22;8808;52.478;13.378;2023-07-02T05:49:17;18.90;99.90
17381;DHT22;8808;52.478;13.378;2023-07-02T05:51:44;18.80;99.90
17381;DHT22;8808;52.478;13.378;2023-07-02T05:54:11;18.70;99.90
17381;DHT22;8808;52.478;13.378;2023-07-02T05:56:39;18.70;99.90
17381;DHT22;8808;52.478;13.378;2023-07-02T05:59:06;18.70;99.90
17381;DHT22;8808;52.478;13.378;2023-07-02T06:01:33;18.80;99.90
17381;DHT22;8808;52.478;13.378;2023-07-02T06:04:00;19.00;99.90
17381;DHT22;8808;52.478;13.378;2023-07-02T06:06:27;19.10;99.90
17381;DHT22;8808;52.478;13.378;2023-07-02T06:08:54;19.20;99.90
17381;DHT22;8808;52.478;13.378;2023-07-02T06:11:21;19.20;99.90
17381;DHT22;8808;52.478;13.378;2023-07-02T06:13:49;19.30;99.90
17381;DHT22;8808;52.478;13.378;2023-07-02T06:16:16;19.60;99.90
17381;DHT22;8808;52.478;13.378;2023-07-02T06:18:43;19.80;99.90
17381;DHT22;8808;52.478;13.378;2023-07-02T06:21:10;19.70;99.90
17381;DHT22;8808;52.478;13.378;2023-07-02T06:23:41;19.60;99.90
17381;DHT22;8808;52.478;13.378;2023-07-02T06:26:08;19.40;99.90
17381;DHT22;8808;52.478;13.378;2023-07-02T06:28:35;19.30;99.90
17381;DHT22;8808;52.478;13.378;2023-07-02T06:31:03;19.60;99.90
17381;DHT22;8808;52.478;13.378;2023-07-02T06:33:30;19.30;99.90
17381;DHT22;8808;52.478;13.378;2023-07-02T06:35:57;19.20;99.90
17381;DHT22;8808;52.478;13.378;2023-07-02T06:38:24;19.20;99.90
17381;DHT22;8808;52.478;13.378;2023-07-02T06:40:51;19.20;99.90
17381;DHT22;8808;52.478;13.378;2023-07-02T06:43:18;19.30;99.90
17381;DHT22;8808;52.478;13.378;2023-07-02T06:45:45;19.40;99.90
17381;DHT22;8808;52.478;13.378;2023-07-02T06:48:13;19.50;99.90
17381;DHT22;8808;52.478;13.378;2023-07-02T06:50:43;19.70;99.90
17381;DHT22;8808;52.478;13.378;2023-07-02T06:53:11;19.90;99.90
17381;DHT22;8808;52.478;13.378;2023-07-02T06:55:38;19.80;99.90
17381;DHT22;8808;52.478;13.378;2023-07-02T06:58:05;19.80;99.90
17381;DHT22;8808;52.478;13.378;2023-07-02T07:00:32;20.00;99.90
17381;DHT22;8808;52.478;13.378;2023-07-02T07:03:01;19.80;99.90
17381;DHT22;8808;52.478;13.378;2023-07-02T07:05:29;20.30;99.90
17381;DHT22;8808;52.478;13.378;2023-07-02T07:07:56;20.50;99.90
17381;DHT22;8808;52.478;13.378;2023-07-02T07:10:23;20.90;99.90
17381;DHT22;8808;52.478;13.378;2023-07-02T07:12:50;20.40;99.90
17381;DHT22;8808;52.478;13.378;2023-07-02T07:15:18;20.30;99.90
17381;DHT22;8808;52.478;13.378;2023-07-02T07:17:45;20.70;99.90
17381;DHT22;8808;52.478;13.378;2023-07-02T07:20:12;20.40;99.90
17381;DHT22;8808;52.478;13.378;2023-07-02T07:22:40;20.30;99.90
17381;DHT22;8808;52.478;13.378;2023-07-02T07:25:08;21.10;99.90
17381;DHT22;8808;52.478;13.378;2023-07-02T07:27:35;21.20;99.90
17381;DHT22;8808;52.478;13.378;2023-07-02T07:30:03;20.50;99.90
17381;DHT22;8808;52.478;13.378;2023-07-02T07:32:30;21.40;99.90
17381;DHT22;8808;52.478;13.378;2023-07-02T07:34:57;21.70;99.90
17381;DHT22;8808;52.478;13.378;2023-07-02T07:37:24;21.60;99.90
17381;DHT22;8808;52.478;13.378;2023-07-02T07:39:53;21.30;99.90
17381;DHT22;8808;52.478;13.378;2023-07-02T07:42:20;21.20;99.90
17381;DHT22;8808;52.478;13.378;2023-07-02T07:44:47;22.40;99.90
17381;DHT22;8808;52.478;13.378;2023-07-02T07:47:14;21.30;99.90
17381;DHT22;8808;52.478;13.378;2023-07-02T07:49:41;20.30;99.90
17381;DHT22;8808;52.478;13.378;2023-07-02T07:52:08;20.00;99.90
17381;DHT22;8808;52.478;13.378;2023-07-02T07:54:35;20.20;99.90
17381;DHT22;8808;52.478;13.378;2023-07-02T07:57:04;19.80;99.90
17381;DHT22;8808;52.478;13.378;2023-07-02T07:59:31;19.80;99.90
17381;DHT22;8808;52.478;13.378;2023-07-02T08:01:58;19.60;99.90
17381;DHT22;8808;52.478;13.378;2023-07-02T08:04:25;19.60;99.90
17381;DHT22;8808;52.478;13.378;2023-07-02T08:06:52;19.50;99.90
17381;DHT22;8808;52.478;13.378;2023-07-02T08:09:20;19.60;99.90
17381;DHT22;8808;52.478;13.378;2023-07-02T08:11:47;19.70;99.90
17381;DHT22;8808;52.478;13.378;2023-07-02T08:14:16;19.70;99.90
17381;DHT22;8808;52.478;13.378;2023-07-02T08:16:44;19.50;99.90
17381;DHT22;8808;52.478;13.378;2023-07-02T08:19:11;19.80;99.90
17381;DHT22;8808;52.478;13.378;2023-07-02T08:21:38;19.50;99.90
17381;DHT22;8808;52.478;13.378;2023-07-02T08:24:05;20.20;99.90
17381;DHT22;8808;52.478;13.378;2023-07-02T08:26:33;21.50;99.90
17381;DHT22;8808;52.478;13.378;2023-07-02T08:28:59;20.20;99.90
17381;DHT22;8808;52.478;13.378;2023-07-02T08:31:28;21.10;99.90
17381;DHT22;8808;52.478;13.378;2023-07-02T08:33:55;21.20;99.90
17381;DHT22;8808;52.478;13.378;2023-07-02T08:36:22;20.80;99.90
17381;DHT22;8808;52.478;13.378;2023-07-02T08:38:49;20.90;99.90
17381;DHT22;8808;52.478;13.378;2023-07-02T08:41:16;22.20;99.90
17381;DHT22;8808;52.478;13.378;2023-07-02T08:43:43;21.40;99.90
17381;DHT22;8808;52.478;13.378;2023-07-02T08:46:10;21.10;99.90
17381;DHT22;8808;52.478;13.378;2023-07-02T08:48:38;21.30;99.90
17381;DHT22;8808;52.478;13.378;2023-07-02T08:51:05;19.80;99.90
17381;DHT22;8808;52.478;13.378;2023-07-02T08:53:32;20.80;99.90
17381;DHT22;8808;52.478;13.378;2023-07-02T08:56:00;21.00;99.90
17381;DHT22;8808;52.478;13.378;2023-07-02T08:58:27;21.50;99.90
17381;DHT22;8808;52.478;13.378;2023-07-02T09:01:08;21.70;99.90
17381;DHT22;8808;52.478;13.378;2023-07-02T09:03:35;21.40;99.90
17381;DHT22;8808;52.478;13.378;2023-07-02T09:06:05;21.10;99.90
17381;DHT22;8808;52.478;13.378;2023-07-02T09:08:32;19.70;99.90
17381;DHT22;8808;52.478;13.378;2023-07-02T09:11:07;20.30;99.90
17381;DHT22;8808;52.478;13.378;2023-07-02T09:13:48;20.20;99.90
17381;DHT22;8808;52.478;13.378;2023-07-02T09:16:22;20.00;99.90
17381;DHT22;8808;52.478;13.378;2023-07-02T09:18:59;19.90;99.90
17381;DHT22;8808;52.478;13.378;2023-07-02T09:21:38;20.20;99.90
17381;DHT22;8808;52.478;13.378;2023-07-02T09:24:15;21.10;99.90
17381;DHT22;8808;52.478;13.378;2023-07-02T09:26:44;21.10;99.90
17381;DHT22;8808;52.478;13.378;2023-07-02T09:29:11;20.90;99.90
17381;DHT22;8808;52.478;13.378;2023-07-02T09:31:45;22.50;99.90
17381;DHT22;8808;52.478;13.378;2023-07-02T09:34:12;21.40;99.90
17381;DHT22;8808;52.478;13.378;2023-07-02T09:36:41;21.80;99.90
17381;DHT22;8808;52.478;13.378;2023-07-02T09:39:11;23.00;99.90
17381;DHT22;8808;52.478;13.378;2023-07-02T09:41:39;22.10;99.90
17381;DHT22;8808;52.478;13.378;2023-07-02T09:44:06;22.10;99.90
17381;DHT22;8808;52.478;13.378;2023-07-02T09:46:36;21.50;99.90
17381;DHT22;8808;52.478;13.378;2023-07-02T09:49:05;21.50;99.90
17381;DHT22;8808;52.478;13.378;2023-07-02T09:51:33;21.00;99.90
17381;DHT22;8808;52.478;13.378;2023-07-02T09:54:01;22.20;99.90
17381;DHT22;8808;52.478;13.378;2023-07-02T09:56:28;21.90;99.90
17381;DHT22;8808;52.478;13.378;2023-07-02T09:58:56;21.10;99.90
17381;DHT22;8808;52.478;13.378;2023-07-02T10:01:23;20.70;99.90
17381;DHT22;8808;52.478;13.378;2023-07-02T10:03:50;21.60;99.90
17381;DHT22;8808;52.478;13.378;2023-07-02T10:06:17;22.20;99.90
17381;DHT22;8808;52.478;13.378;2023-07-02T10:08:53;22.90;99.90
17381;DHT22;8808;52.478;13.378;2023-07-02T10:11:33;22.20;99.90
17381;DHT22;8808;52.478;13.378;2023-07-02T10:14:00;21.90;99.90
17381;DHT22;8808;52.478;13.378;2023-07-02T10:16:27;22.60;99.90
17381;DHT22;8808;52.478;13.378;2023-07-02T10:19:08;22.70;99.90
17381;DHT22;8808;52.478;13.378;2023-07-02T10:21:35;22.80;99.90
17381;DHT22;8808;52.478;13.378;2023-07-02T10:24:12;22.90;99.90
17381;DHT22;8808;52.478;13.378;2023-07-02T10:26:55;23.00;99.90
17381;DHT22;8808;52.478;13.378;2023-07-02T10:29:23;22.90;99.90
17381;DHT22;8808;52.478;13.378;2023-07-02T10:31:51;22.60;99.90
17381;DHT22;8808;52.478;13.378;2023-07-02T10:34:31;22.50;99.90
17381;DHT22;8808;52.478;13.378;2023-07-02T10:37:00;23.00;99.90
17381;DHT22;8808;52.478;13.378;2023-07-02T10:39:27;23.20;99.90
17381;DHT22;8808;52.478;13.378;2023-07-02T10:42:04;22.80;99.90
17381;DHT22;8808;52.478;13.378;2023-07-02T10:44:32;23.40;99.90
17381;DHT22;8808;52.478;13.378;2023-07-02T10:46:59;23.20;99.90
17381;DHT22;8808;52.478;13.378;2023-07-02T10:49:31;23.30;99.90
17381;DHT22;8808;52.478;13.378;2023-07-02T10:51:58;22.30;99.90
17381;DHT22;8808;52.478;13.378;2023-07-02T10:54:25;22.50;99.90
17381;DHT22;8808;52.478;13.378;2023-07-02T10:56:57;23.10;99.90
17381;DHT22;8808;52.478;13.378;2023-07-02T10:59:25;23.00;99.90
17381;DHT22;8808;52.478;13.378;2023-07-02T11:01:52;23.20;99.90
17381;DHT22;8808;52.478;13.378;2023-07-02T11:04:21;23.50;99.90
17381;DHT22;8808;52.478;13.378;2023-07-02T11:06:49;23.00;99.90
17381;DHT22;8808;52.478;13.378;2023-07-02T11:09:16;23.00;99.90
17381;DHT22;8808;52.478;13.378;2023-07-02T11:11:53;22.80;99.90
17381;DHT22;8808;52.478;13.378;2023-07-02T11:14:32;23.10;99.90
17381;DHT22;8808;52.478;13.378;2023-07-02T11:19:28;23.30;99.90
17381;DHT22;8808;52.478;13.378;2023-07-02T11:21:57;23.60;99.90
17381;DHT22;8808;52.478;13.378;2023-07-02T11:24:28;23.50;99.90
17381;DHT22;8808;52.478;13.378;2023-07-02T11:26:55;23.50;99.90
17381;DHT22;8808;52.478;13.378;2023-07-02T11:29:23;23.40;99.90
17381;DHT22;8808;52.478;13.378;2023-07-02T11:31:51;22.70;99.90
17381;DHT22;8808;52.478;13.378;2023-07-02T11:34:20;22.50;99.90
17381;DHT22;8808;52.478;13.378;2023-07-02T11:36:47;22.20;99.90
17381;DHT22;8808;52.478;13.378;2023-07-02T11:39:15;22.50;99.90
17381;DHT22;8808;52.478;13.378;2023-07-02T11:41:43;22.50;99.90
17381;DHT22;8808;52.478;13.378;2023-07-02T11:44:11;23.20;99.90
17381;DHT22;8808;52.478;13.378;2023-07-02T11:46:38;23.50;99.90
17381;DHT22;8808;52.478;13.378;2023-07-02T11:49:06;23.50;99.90
17381;DHT22;8808;52.478;13.378;2023-07-02T11:51:35;23.80;99.90
17381;DHT22;8808;52.478;13.378;2023-07-02T11:54:02;23.30;99.90
17381;DHT22;8808;52.478;13.378;2023-07-02T11:56:30;23.20;99.90
17381;DHT22;8808;52.478;13.378;2023-07-02T11:58:57;23.00;99.90
17381;DHT22;8808;52.478;13.378;2023-07-02T12:01:24;23.10;99.90
17381;DHT22;8808;52.478;13.378;2023-07-02T12:03:50;23.00;95.90
17381;DHT22;8808;52.478;13.378;2023-07-02T12:06:19;23.30;96.70
17381;DHT22;8808;52.478;13.378;2023-07-02T12:08:46;23.60;99.90
17381;DHT22;8808;52.478;13.378;2023-07-02T12:11:13;23.60;99.90
17381;DHT22;8808;52.478;13.378;2023-07-02T12:13:41;23.70;98.40
17381;DHT22;8808;52.478;13.378;2023-07-02T12:16:08;23.70;95.90
17381;DHT22;8808;52.478;13.378;2023-07-02T12:18:35;23.70;99.90
17381;DHT22;8808;52.478;13.378;2023-07-02T12:21:02;23.80;96.10
17381;DHT22;8808;52.478;13.378;2023-07-02T12:23:31;24.20;99.90
17381;DHT22;8808;52.478;13.378;2023-07-02T12:25:58;24.20;93.90
17381;DHT22;8808;52.478;13.378;2023-07-02T12:28:25;24.30;99.90
17381;DHT22;8808;52.478;13.378;2023-07-02T12:30:52;24.00;93.80
17381;DHT22;8808;52.478;13.378;2023-07-02T12:33:19;23.80;97.10
17381;DHT22;8808;52.478;13.378;2023-07-02T12:35:46;24.00;99.90
17381;DHT22;8808;52.478;13.378;2023-07-02T12:38:13;24.10;99.90
17381;DHT22;8808;52.478;13.378;2023-07-02T12:40:41;24.30;95.60
17381;DHT22;8808;52.478;13.378;2023-07-02T12:43:08;24.50;99.90
17381;DHT22;8808;52.478;13.378;2023-07-02T12:45:35;24.60;98.60
17381;DHT22;8808;52.478;13.378;2023-07-02T12:48:02;24.60;93.70
17381;DHT22;8808;52.478;13.378;2023-07-02T12:50:31;24.70;93.00
17381;DHT22;8808;52.478;13.378;2023-07-02T12:52:58;24.70;99.10
17381;DHT22;8808;52.478;13.378;2023-07-02T12:55:25;24.60;92.20
17381;DHT22;8808;52.478;13.378;2023-07-02T12:57:53;24.60;90.00
17381;DHT22;8808;52.478;13.378;2023-07-02T13:00:20;24.50;85.10
17381;DHT22;8808;52.478;13.378;2023-07-02T13:02:47;24.30;90.70
17381;DHT22;8808;52.478;13.378;2023-07-02T13:05:14;24.00;91.60
17381;DHT22;8808;52.478;13.378;2023-07-02T13:07:41;24.10;99.90
17381;DHT22;8808;52.478;13.378;2023-07-02T13:10:09;23.90;99.90
17381;DHT22;8808;52.478;13.378;2023-07-02T13:12:35;23.90;99.90
17381;DHT22;8808;52.478;13.378;2023-07-02T13:15:05;23.80;99.90
17381;DHT22;8808;52.478;13.378;2023-07-02T13:17:32;23.90;94.90
17381;DHT22;8808;52.478;13.378;2023-07-02T13:19:58;23.80;99.90
17381;DHT22;8808;52.478;13.378;2023-07-02T13:22:26;24.00;99.00
17381;DHT22;8808;52.478;13.378;2023-07-02T13:24:52;23.80;93.30
17381;DHT22;8808;52.478;13.378;2023-07-02T13:27:19;23.80;94.10
17381;DHT22;8808;52.478;13.378;2023-07-02T13:29:46;23.90;97.80
17381;DHT22;8808;52.478;13.378;2023-07-02T13:32:15;23.80;96.30
17381;DHT22;8808;52.478;13.378;2023-07-02T13:34:42;23.80;96.00
17381;DHT22;8808;52.478;13.378;2023-07-02T13:37:09;24.00;99.90
17381;DHT22;8808;52.478;13.378;2023-07-02T13:39:36;23.90;99.90
17381;DHT22;8808;52.478;13.378;2023-07-02T13:42:03;23.60;86.40
17381;DHT22;8808;52.478;13.378;2023-07-02T13:44:32;23.90;99.90
17381;DHT22;8808;52.478;13.378;2023-07-02T13:46:58;23.90;99.90
17381;DHT22;8808;52.478;13.378;2023-07-02T13:49:27;24.00;99.90
17381;DHT22;8808;52.478;13.378;2023-07-02T13:51:54;23.90;99.90
17381;DHT22;8808;52.478;13.378;2023-07-02T13:54:21;23.80;96.10
17381;DHT22;8808;52.478;13.378;2023-07-02T13:56:48;23.40;85.80
17381;DHT22;8808;52.478;13.378;2023-07-02T13:59:18;23.60;86.50
17381;DHT22;8808;52.478;13.378;2023-07-02T14:01:45;23.60;99.90
17381;DHT22;8808;52.478;13.378;2023-07-02T14:04:14;23.60;89.00
17381;DHT22;8808;52.478;13.378;2023-07-02T14:06:41;23.60;98.20
17381;DHT22;8808;52.478;13.378;2023-07-02T14:09:09;23.70;91.30
17381;DHT22;8808;52.478;13.378;2023-07-02T14:11:37;23.60;96.00
17381;DHT22;8808;52.478;13.378;2023-07-02T14:14:05;23.40;86.00
17381;DHT22;8808;52.478;13.378;2023-07-02T14:16:33;23.50;94.20
17381;DHT22;8808;52.478;13.378;2023-07-02T14:19:00;23.40;94.30
17381;DHT22;8808;52.478;13.378;2023-07-02T14:21:27;23.20;91.60
17381;DHT22;8808;52.478;13.378;2023-07-02T14:23:54;23.20;86.60
17381;DHT22;8808;52.478;13.378;2023-07-02T14:26:21;23.30;90.00
17381;DHT22;8808;52.478;13.378;2023-07-02T14:28:48;23.30;88.40
17381;DHT22;8808;52.478;13.378;2023-07-02T14:31:15;23.20;90.30
17381;DHT22;8808;52.478;13.378;2023-07-02T14:33:43;23.20;91.30
17381;DHT22;8808;52.478;13.378;2023-07-02T14:36:10;23.30;88.30
17381;DHT22;8808;52.478;13.378;2023-07-02T14:38:37;23.10;84.60
17381;DHT22;8808;52.478;13.378;2023-07-02T14:41:04;23.20;91.70
17381;DHT22;8808;52.478;13.378;2023-07-02T14:43:31;23.10;83.00
17381;DHT22;8808;52.478;13.378;2023-07-02T14:46:00;22.70;77.70
17381;DHT22;8808;52.478;13.378;2023-07-02T14:48:28;22.80;80.60
17381;DHT22;8808;52.478;13.378;2023-07-02T14:50:58;23.30;92.10
17381;DHT22;8808;52.478;13.378;2023-07-02T14:53:26;23.50;92.00
17381;DHT22;8808;52.478;13.378;2023-07-02T14:55:55;23.80;99.90
17381;DHT22;8808;52.478;13.378;2023-07-02T14:58:22;23.30;91.60
17381;DHT22;8808;52.478;13.378;2023-07-02T15:00:51;23.30;96.00
17381;DHT22;8808;52.478;13.378;2023-07-02T15:03:19;23.40;99.90
17381;DHT22;8808;52.478;13.378;2023-07-02T15:05:48;23.40;95.80
17381;DHT22;8808;52.478;13.378;2023-07-02T15:08:17;23.30;94.90
17381;DHT22;8808;52.478;13.378;2023-07-02T15:10:46;23.00;83.90
17381;DHT22;8808;52.478;13.378;2023-07-02T15:13:14;23.40;99.90
17381;DHT22;8808;52.478;13.378;2023-07-02T15:15:43;23.10;85.00
17381;DHT22;8808;52.478;13.378;2023-07-02T15:18:10;23.30;99.90
17381;DHT22;8808;52.478;13.378;2023-07-02T15:20:37;23.00;92.10
17381;DHT22;8808;52.478;13.378;2023-07-02T15:23:04;23.00;87.90
17381;DHT22;8808;52.478;13.378;2023-07-02T15:25:32;23.10;92.40
17381;DHT22;8808;52.478;13.378;2023-07-02T15:28:00;22.90;90.70
17381;DHT22;8808;52.478;13.378;2023-07-02T15:30:27;23.10;94.70
17381;DHT22;8808;52.478;13.378;2023-07-02T15:32:54;23.00;92.60
17381;DHT22;8808;52.478;13.378;2023-07-02T15:35:22;23.00;97.90
17381;DHT22;8808;52.478;13.378;2023-07-02T15:37:49;23.20;96.00
17381;DHT22;8808;52.478;13.378;2023-07-02T15:40:16;23.30;99.90